Time;durP1;ratioP1;P1;durP2;ratioP2;P2;SDS_P1;SDS_P2;PMS_P1;PMS_P2;Temp;Humidity;BMP_temperature;BMP_pressure;BME280_temperature;BME280_humidity;BME280_pressure;Samples;Min_cycle;Max_cycle;Signal;HPM_P1;HPM_P2
2021/01/07 00:02:14;;;;;;;;;;;;;;;;;;5052547;28;19917;-39
2021/01/07 00:04:40;;;;;;;;;;;;;;;;;;5052439;28;19909;-41
2021/01/07 00:07:06;;;;;;;;;;;;;;;;;;5052647;28;19956;-41
2021/01/07 00:09:32;;;;;;;;;;;;;;;;;;5052512;28;19909;-39
2021/01/07 00:11:58;;;;;;;;;;;;;;;;;;5051625;28;19909;-37
2021/01/07 00:14:24;;;;;;;;;;;;;;;;;;5052609;28;19913;-38
2021/01/07 00:16:50;;;;;;;;;;;;;;;;;;5052351;28;19971;-38
2021/01/07 00:19:16;;;;;;;;;;;;;;;;;;5052252;28;19909;-38
2021/01/07 00:21:42;;;;;;;;;;;;;;;;;;5052279;28;19955;-37
2021/01/07 00:24:08;;;;;;;;;;;;;;;;;;5052297;28;19913;-37
2021/01/07 00:26:34;;;;;;;;;;;;;;;;;;5052564;28;19909;-39
2021/01/07 00:29:00;;;;;;;;;;;;;;;;;;5052247;28;19909;-38
2021/01/07 00:31:25;;;;;;;;;;;;;;;;;;5052334;28;19955;-39
2021/01/07 00:33:51;;;;;;;;;;;;;;;;;;5052005;28;19913;-38
2021/01/07 00:36:17;;;;;;;;;;;;;;;;;;5052130;28;19909;-37
2021/01/07 00:38:43;;;;;;;;;;;;;;;;;;5052292;28;19909;-39
2021/01/07 00:41:09;;;;;;;;;;;;;;;;;;5052072;28;20011;-38
2021/01/07 00:43:35;;;;;;;;;;;;;;;;;;5051917;28;20336;-40
2021/01/07 00:46:01;;;;;;;;;;;;;;;;;;5052000;28;20372;-39
2021/01/07 00:48:27;;;;;;;;;;;;;;;;;;5052137;28;19916;-39
2021/01/07 00:50:53;;;;;;;;;;;;;;;;;;5051798;28;19924;-38
2021/01/07 00:53:19;;;;;;;;;;;;;;;;;;5051882;28;20015;-40
2021/01/07 00:55:45;;;;;;;;;;;;;;;;;;5051861;28;19996;-38
2021/01/07 00:58:11;;;;;;;;;;;;;;;;;;5051880;28;19915;-39
2021/01/07 01:00:37;;;;;;;;;;;;;;;;;;5051795;28;19909;-39
2021/01/07 01:03:03;;;;;;;;;;;;;;;;;;5051822;28;19924;-39
2021/01/07 01:05:29;;;;;;;;;;;;;;;;;;5051848;28;19909;-37
2021/01/07 01:07:55;;;;;;;;;;;;;;;;;;5051772;28;19915;-38
2021/01/07 01:10:21;;;;;;;;;;;;;;;;;;5051955;28;19975;-38
2021/01/07 01:12:46;;;;;;;;;;;;;;;;;;5051776;28;20279;-37
2021/01/07 01:15:12;;;;;;;;;;;;;;;;;;5051764;28;19909;-39
2021/01/07 01:17:38;;;;;;;;;;;;;;;;;;5051669;28;19909;-38
2021/01/07 01:20:04;;;;;;;;;;;;;;;;;;5051536;28;19909;-39
2021/01/07 01:22:30;;;;;;;;;;;;;;;;;;5051756;28;20379;-38
2021/01/07 01:24:57;;;;;;;;;;;;;;;;;;5055419;28;19915;-38
2021/01/07 01:27:23;;;;;;;;;;;;;;;;;;5055831;28;19962;-37
2021/01/07 01:29:49;;;;;;;;;;;;;;;;;;5055555;28;20374;-37
2021/01/07 01:32:15;;;;;;;;;;;;;;;;;;5055493;28;20287;-42
2021/01/07 01:34:41;;;;;;;;;;;;;;;;;;5055280;28;20275;-39
2021/01/07 01:37:07;;;;;;;;;;;;;;;;;;5055468;28;20395;-39
2021/01/07 01:39:33;;;;;;;;;;;;;;;;;;5055327;28;19909;-37
2021/01/07 01:41:59;;;;;;;;;;;;;;;;;;5055428;28;19917;-39
2021/01/07 01:44:25;;;;;;;;;;;;;;;;;;5055273;28;19998;-39
2021/01/07 01:46:51;;;;;;;;;;;;;;;;;;5055174;28;19909;-39
2021/01/07 01:49:17;;;;;;;;;;;;;;;;;;5054896;28;19909;-38
2021/01/07 01:51:43;;;;;;;;;;;;;;;;;;5055162;28;19960;-39
2021/01/07 01:54:08;;;;;;;;;;;;;;;;;;5055336;28;19966;-38
2021/01/07 01:56:34;;;;;;;;;;;;;;;;;;5055054;28;19908;-38
2021/01/07 01:59:00;;;;;;;;;;;;;;;;;;5055239;28;20433;-38
2021/01/07 02:01:26;;;;;;;;;;;;;;;;;;5055248;28;20364;-40
2021/01/07 02:03:52;;;;;;;;;;;;;;;;;;5054866;28;19956;-39
2021/01/07 02:08:48;;;;;;;;;;;;;;;;;;5072961;28;19924;-37
2021/01/07 02:11:14;;;;;;;;;;;;;;;;;;5074853;28;19908;-37
2021/01/07 02:13:40;;;;;;;;;;;;;;;;;;5074766;28;19909;-37
2021/01/07 02:16:06;;;;;;;;;;;;;;;;;;5074833;28;20003;-37
2021/01/07 02:18:32;;;;;;;;;;;;;;;;;;5074905;28;19944;-39
2021/01/07 02:20:58;;;;;;;;;;;;;;;;;;5074723;28;20307;-37
2021/01/07 02:23:24;;;;;;;;;;;;;;;;;;5074320;28;20294;-38
2021/01/07 02:25:49;;;;;;;;;;;;;;;;;;5074529;28;20370;-38
2021/01/07 02:28:15;;;;;;;;;;;;;;;;;;5074388;28;19916;-38
2021/01/07 02:30:41;;;;;;;;;;;;;;;;;;5074366;28;19908;-39
2021/01/07 02:33:07;;;;;;;;;;;;;;;;;;5074407;28;19909;-37
2021/01/07 02:35:33;;;;;;;;;;;;;;;;;;5073313;28;19915;-37
2021/01/07 02:37:59;;;;;;;;;;;;;;;;;;5074350;28;19916;-37
2021/01/07 02:40:25;;;;;;;;;;;;;;;;;;5074297;28;19908;-37
2021/01/07 02:42:51;;;;;;;;;;;;;;;;;;5074189;28;19925;-38
2021/01/07 02:45:17;;;;;;;;;;;;;;;;;;5074137;28;19962;-37
2021/01/07 02:47:43;;;;;;;;;;;;;;;;;;5074349;28;19909;-37
2021/01/07 02:50:09;;;;;;;;;;;;;;;;;;5074093;28;19919;-37
2021/01/07 02:52:35;;;;;;;;;;;;;;;;;;5073915;28;19970;-41
2021/01/07 02:55:01;;;;;;;;;;;;;;;;;;5074133;28;19909;-37
2021/01/07 02:57:27;;;;;;;;;;;;;;;;;;5073949;28;20270;-37
2021/01/07 02:59:52;;;;;;;;;;;;;;;;;;5073924;28;20279;-37
2021/01/07 03:02:18;;;;;;;;;;;;;;;;;;5074019;28;20424;-38
2021/01/07 03:04:44;;;;;;;;;;;;;;;;;;5074033;28;19963;-38
2021/01/07 03:07:10;;;;;;;;;;;;;;;;;;5073425;28;19920;-38
2021/01/07 03:09:36;;;;;;;;;;;;;;;;;;5073749;28;19915;-37
2021/01/07 03:12:02;;;;;;;;;;;;;;;;;;5074170;28;19916;-38
2021/01/07 03:14:28;;;;;;;;;;;;;;;;;;5073651;28;19908;-40
2021/01/07 03:16:54;;;;;;;;;;;;;;;;;;5073585;28;19912;-38
2021/01/07 03:19:20;;;;;;;;;;;;;;;;;;5073502;28;20304;-41
2021/01/07 03:21:46;;;;;;;;;;;;;;;;;;5073395;28;20333;-38
2021/01/07 03:24:12;;;;;;;;;;;;;;;;;;5073257;28;20283;-39
2021/01/07 03:26:38;;;;;;;;;;;;;;;;;;5073354;28;20275;-38
2021/01/07 03:29:04;;;;;;;;;;;;;;;;;;5073510;28;20399;-38
2021/01/07 03:31:30;;;;;;;;;;;;;;;;;;5073375;28;19908;-37
2021/01/07 03:33:56;;;;;;;;;;;;;;;;;;5073407;28;20004;-38
2021/01/07 03:36:22;;;;;;;;;;;;;;;;;;5073178;28;20288;-38
2021/01/07 03:38:47;;;;;;;;;;;;;;;;;;5073204;28;19914;-39
2021/01/07 03:41:13;;;;;;;;;;;;;;;;;;5073044;28;20283;-38
2021/01/07 03:43:39;;;;;;;;;;;;;;;;;;5072920;28;20355;-38
2021/01/07 03:46:05;;;;;;;;;;;;;;;;;;5072777;28;20403;-38
2021/01/07 03:48:31;;;;;;;;;;;;;;;;;;5073295;28;19908;-38
2021/01/07 03:50:57;;;;;;;;;;;;;;;;;;5072822;28;19920;-39
2021/01/07 03:53:23;;;;;;;;;;;;;;;;;;5072749;28;19909;-37
2021/01/07 03:55:49;;;;;;;;;;;;;;;;;;5072854;28;19909;-37
2021/01/07 03:58:15;;;;;;;;;;;;;;;;;;5072774;28;20001;-38
2021/01/07 04:00:41;;;;;;;;;;;;;;;;;;5072721;28;19915;-38
2021/01/07 04:03:07;;;;;;;;;;;;;;;;;;5072659;28;19916;-38
2021/01/07 04:05:33;;;;;;;;;;;;;;;;;;5072855;28;19909;-38
2021/01/07 04:07:59;;;;;;;;;;;;;;;;;;5072288;28;19920;-37
2021/01/07 04:10:24;;;;;;;;;;;;;;;;;;5072734;28;19993;-37
2021/01/07 04:12:50;;;;;;;;;;;;;;;;;;5072554;28;20363;-38
2021/01/07 04:15:16;;;;;;;;;;;;;;;;;;5072511;28;20313;-38
2021/01/07 04:17:42;;;;;;;;;;;;;;;;;;5072761;28;20351;-39
2021/01/07 04:20:08;;;;;;;;;;;;;;;;;;5072546;28;19920;-38
2021/01/07 04:22:34;;;;;;;;;;;;;;;;;;5072847;28;20011;-39
2021/01/07 04:25:00;;;;;;;;;;;;;;;;;;5072375;28;19909;-42
2021/01/07 04:27:26;;;;;;;;;;;;;;;;;;5072326;28;19909;-37
2021/01/07 04:29:52;;;;;;;;;;;;;;;;;;5072216;28;19908;-39
2021/01/07 04:32:18;;;;;;;;;;;;;;;;;;5072239;28;19915;-41
2021/01/07 04:34:44;;;;;;;;;;;;;;;;;;5072210;28;19916;-38
2021/01/07 04:37:10;;;;;;;;;;;;;;;;;;5072175;28;19914;-37
2021/01/07 04:39:36;;;;;;;;;;;;;;;;;;5072351;28;20053;-37
2021/01/07 04:42:01;;;;;;;;;;;;;;;;;;5072062;28;20252;-38
2021/01/07 04:44:27;;;;;;;;;;;;;;;;;;5072111;28;20248;-38
2021/01/07 04:46:53;;;;;;;;;;;;;;;;;;5072101;28;19908;-37
2021/01/07 04:49:19;;;;;;;;;;;;;;;;;;5072031;28;19916;-41
2021/01/07 04:51:45;;;;;;;;;;;;;;;;;;5072072;28;20015;-37
2021/01/07 04:54:11;;;;;;;;;;;;;;;;;;5072097;28;19915;-38
2021/01/07 04:56:37;;;;;;;;;;;;;;;;;;5072229;28;20256;-38
2021/01/07 04:59:03;;;;;;;;;;;;;;;;;;5071487;28;20302;-37
2021/01/07 05:01:29;;;;;;;;;;;;;;;;;;5071981;28;20294;-37
2021/01/07 05:03:55;;;;;;;;;;;;;;;;;;5071860;28;20335;-37
2021/01/07 05:06:21;;;;;;;;;;;;;;;;;;5071926;28;20378;-38
2021/01/07 05:08:47;;;;;;;;;;;;;;;;;;5071519;28;19950;-37
2021/01/07 05:11:13;;;;;;;;;;;;;;;;;;5071831;28;19962;-38
2021/01/07 05:13:38;;;;;;;;;;;;;;;;;;5071970;28;19914;-37
2021/01/07 05:16:04;;;;;;;;;;;;;;;;;;5071973;28;19951;-38
2021/01/07 05:18:30;;;;;;;;;;;;;;;;;;5071726;28;19915;-37
2021/01/07 05:20:56;;;;;;;;;;;;;;;;;;5071717;28;19915;-38
2021/01/07 05:23:22;;;;;;;;;;;;;;;;;;5071805;28;19955;-40
2021/01/07 05:25:48;;;;;;;;;;;;;;;;;;5072031;28;19996;-39
2021/01/07 05:28:14;;;;;;;;;;;;;;;;;;5071653;28;19913;-37
2021/01/07 05:30:40;;;;;;;;;;;;;;;;;;5071693;28;19909;-37
2021/01/07 05:33:06;;;;;;;;;;;;;;;;;;5071791;28;20026;-36
2021/01/07 05:35:32;;;;;;;;;;;;;;;;;;5071608;28;19912;-38
2021/01/07 05:37:58;;;;;;;;;;;;;;;;;;5071776;28;19908;-39
2021/01/07 05:40:24;;;;;;;;;;;;;;;;;;5071441;28;19955;-37
2021/01/07 05:42:50;;;;;;;;;;;;;;;;;;5071425;28;20015;-38
2021/01/07 05:45:16;;;;;;;;;;;;;;;;;;5071717;28;19912;-38
2021/01/07 05:47:42;;;;;;;;;;;;;;;;;;5071478;28;20429;-39
2021/01/07 05:50:08;;;;;;;;;;;;;;;;;;5071507;28;19916;-39
2021/01/07 05:52:34;;;;;;;;;;;;;;;;;;5071710;28;19932;-38
2021/01/07 05:54:59;;;;;;;;;;;;;;;;;;5071307;28;19962;-39
2021/01/07 05:57:25;;;;;;;;;;;;;;;;;;5071389;28;19908;-39
2021/01/07 05:59:51;;;;;;;;;;;;;;;;;;5071386;28;19915;-38
2021/01/07 06:02:17;;;;;;;;;;;;;;;;;;5071336;28;20440;-39
2021/01/07 06:04:43;;;;;;;;;;;;;;;;;;5071359;28;19931;-43
2021/01/07 06:07:09;;;;;;;;;;;;;;;;;;5071401;28;19955;-39
2021/01/07 06:09:35;;;;;;;;;;;;;;;;;;5071162;28;20268;-43
2021/01/07 06:12:01;;;;;;;;;;;;;;;;;;5074531;28;20467;-39
2021/01/07 06:14:27;;;;;;;;;;;;;;;;;;5074808;28;19915;-40
2021/01/07 06:16:53;;;;;;;;;;;;;;;;;;5074761;28;19973;-39
2021/01/07 06:19:19;;;;;;;;;;;;;;;;;;5074617;28;20390;-37
2021/01/07 06:21:45;;;;;;;;;;;;;;;;;;5074618;28;19909;-37
2021/01/07 06:24:11;;;;;;;;;;;;;;;;;;5074614;28;20003;-37
2021/01/07 06:26:37;;;;;;;;;;;;;;;;;;5074767;28;19912;-38
2021/01/07 06:29:03;;;;;;;;;;;;;;;;;;5074494;28;19908;-38
2021/01/07 06:31:29;;;;;;;;;;;;;;;;;;5074506;28;19908;-38
2021/01/07 06:33:55;;;;;;;;;;;;;;;;;;5074389;28;20310;-38
2021/01/07 06:36:20;;;;;;;;;;;;;;;;;;5074361;28;20351;-37
2021/01/07 06:38:46;;;;;;;;;;;;;;;;;;5074335;28;19914;-36
2021/01/07 06:41:12;;;;;;;;;;;;;;;;;;5074539;28;19955;-37
2021/01/07 06:43:38;;;;;;;;;;;;;;;;;;5075354;28;19927;-37
2021/01/07 06:46:04;;;;;;;;;;;;;;;;;;5074954;28;19970;-37
2021/01/07 06:48:30;;;;;;;;;;;;;;;;;;5074136;28;19962;-36
2021/01/07 06:50:56;;;;;;;;;;;;;;;;;;5074031;28;20003;-37
2021/01/07 06:53:22;;;;;;;;;;;;;;;;;;5074208;28;19943;-38
2021/01/07 06:55:48;;;;;;;;;;;;;;;;;;5073836;28;20008;-38
2021/01/07 06:58:14;;;;;;;;;;;;;;;;;;5073994;28;19908;-38
2021/01/07 07:00:40;;;;;;;;;;;;;;;;;;5074074;28;20261;-39
2021/01/07 07:03:06;;;;;;;;;;;;;;;;;;5073771;28;20410;-38
2021/01/07 07:05:32;;;;;;;;;;;;;;;;;;5073772;28;20390;-39
2021/01/07 07:07:58;;;;;;;;;;;;;;;;;;5074004;28;19921;-39
2021/01/07 07:10:24;;;;;;;;;;;;;;;;;;5073558;28;19962;-38
2021/01/07 07:12:50;;;;;;;;;;;;;;;;;;5073663;28;19909;-37
2021/01/07 07:15:16;;;;;;;;;;;;;;;;;;5073662;28;19909;-37
2021/01/07 07:17:42;;;;;;;;;;;;;;;;;;5073658;28;20379;-37
2021/01/07 07:20:08;;;;;;;;;;;;;;;;;;5073547;28;19915;-38
2021/01/07 07:22:34;;;;;;;;;;;;;;;;;;5072952;28;20020;-37
2021/01/07 07:25:00;;;;;;;;;;;;;;;;;;5073244;28;19962;-37
2021/01/07 07:27:26;;;;;;;;;;;;;;;;;;5073365;28;19935;-37
2021/01/07 07:29:51;;;;;;;;;;;;;;;;;;5073315;28;19915;-37
2021/01/07 07:32:17;;;;;;;;;;;;;;;;;;5073291;28;19916;-38
2021/01/07 07:34:43;;;;;;;;;;;;;;;;;;5073380;28;19916;-38
2021/01/07 07:37:09;;;;;;;;;;;;;;;;;;5073187;28;19909;-37
2021/01/07 07:39:35;;;;;;;;;;;;;;;;;;5073020;28;19999;-37
2021/01/07 07:42:01;;;;;;;;;;;;;;;;;;5073066;28;19970;-37
2021/01/07 07:44:27;;;;;;;;;;;;;;;;;;5073086;28;19909;-38
2021/01/07 07:46:53;;;;;;;;;;;;;;;;;;5073045;28;19916;-38
2021/01/07 07:49:19;;;;;;;;;;;;;;;;;;5072999;28;19915;-39
2021/01/07 07:51:45;;;;;;;;;;;;;;;;;;5073063;28;19926;-36
2021/01/07 07:54:11;;;;;;;;;;;;;;;;;;5073033;28;19908;-36
2021/01/07 07:56:37;;;;;;;;;;;;;;;;;;5072596;28;19909;-37
2021/01/07 07:59:03;;;;;;;;;;;;;;;;;;5072756;28;19915;-37
2021/01/07 08:01:29;;;;;;;;;;;;;;;;;;5072678;28;19909;-37
2021/01/07 08:03:55;;;;;;;;;;;;;;;;;;5072590;28;19920;-37
2021/01/07 08:06:21;;;;;;;;;;;;;;;;;;5072630;28;19913;-42
2021/01/07 08:08:47;;;;;;;;;;;;;;;;;;5072313;28;19924;-37
2021/01/07 08:11:12;;;;;;;;;;;;;;;;;;5072591;28;19908;-37
2021/01/07 08:13:38;;;;;;;;;;;;;;;;;;5072519;28;19943;-38
2021/01/07 08:16:04;;;;;;;;;;;;;;;;;;5072476;28;19916;-37
2021/01/07 08:18:30;;;;;;;;;;;;;;;;;;5072381;28;19912;-38
2021/01/07 08:20:56;;;;;;;;;;;;;;;;;;5072335;28;20000;-38
2021/01/07 08:23:23;;;;;;;;;;;;;;;;;;5072274;28;20019;-41
2021/01/07 08:25:49;;;;;;;;;;;;;;;;;;5072198;28;19909;-38
2021/01/07 08:28:15;;;;;;;;;;;;;;;;;;5072415;28;19914;-39
2021/01/07 08:30:41;;;;;;;;;;;;;;;;;;5072273;28;19922;-37
2021/01/07 08:33:07;;;;;;;;;;;;;;;;;;5071508;28;19913;-39
2021/01/07 08:35:33;;;;;;;;;;;;;;;;;;5072261;28;19909;-41
2021/01/07 08:37:59;;;;;;;;;;;;;;;;;;5072411;28;19908;-38
2021/01/07 08:40:25;;;;;;;;;;;;;;;;;;5072052;28;20331;-38
2021/01/07 08:42:50;;;;;;;;;;;;;;;;;;5072025;28;19923;-37
2021/01/07 08:45:16;;;;;;;;;;;;;;;;;;5072283;28;19912;-38
2021/01/07 08:47:42;;;;;;;;;;;;;;;;;;5072090;28;20003;-37
2021/01/07 08:50:08;;;;;;;;;;;;;;;;;;5072057;28;19970;-38
2021/01/07 08:52:34;;;;;;;;;;;;;;;;;;5071946;28;19999;-38
2021/01/07 08:55:00;;;;;;;;;;;;;;;;;;5072018;28;20011;-39
2021/01/07 08:57:26;;;;;;;;;;;;;;;;;;5071865;28;19908;-38
2021/01/07 08:59:52;;;;;;;;;;;;;;;;;;5071937;28;19915;-38
2021/01/07 09:02:21;;;;;;;;;;;;;;;;;;5072250;28;19977;-37
2021/01/07 09:04:51;;;;;;;;;;;;;;;;;;5071987;28;19939;-38
2021/01/07 09:07:17;;;;;;;;;;;;;;;;;;5072043;28;19920;-38
2021/01/07 09:09:43;;;;;;;;;;;;;;;;;;5071790;28;19984;-37
2021/01/07 09:12:08;;;;;;;;;;;;;;;;;;5071939;28;19921;-37
2021/01/07 09:14:34;;;;;;;;;;;;;;;;;;5071812;28;19913;-38
2021/01/07 09:17:00;;;;;;;;;;;;;;;;;;5072110;28;19916;-40
2021/01/07 09:19:26;;;;;;;;;;;;;;;;;;5071714;28;19909;-38
2021/01/07 09:21:52;;;;;;;;;;;;;;;;;;5071699;28;19939;-38
2021/01/07 09:24:18;;;;;;;;;;;;;;;;;;5071909;28;19915;-39
2021/01/07 09:26:44;;;;;;;;;;;;;;;;;;5072001;28;19909;-37
2021/01/07 09:29:10;;;;;;;;;;;;;;;;;;5071589;28;19939;-38
2021/01/07 09:31:36;;;;;;;;;;;;;;;;;;5071621;28;19915;-37
2021/01/07 09:34:02;;;;;;;;;;;;;;;;;;5071645;28;19944;-38
2021/01/07 09:36:28;;;;;;;;;;;;;;;;;;5071552;28;19962;-38
2021/01/07 09:38:54;;;;;;;;;;;;;;;;;;5071773;28;19909;-38
2021/01/07 09:41:20;;;;;;;;;;;;;;;;;;5071515;28;20347;-37
2021/01/07 09:43:46;;;;;;;;;;;;;;;;;;5071658;28;20304;-39
2021/01/07 09:46:12;;;;;;;;;;;;;;;;;;5075254;28;20363;-37
2021/01/07 09:48:38;;;;;;;;;;;;;;;;;;5057385;28;19916;-37
2021/01/07 09:51:04;;;;;;;;;;;;;;;;;;5075460;28;19909;-36
2021/01/07 09:53:30;;;;;;;;;;;;;;;;;;5075416;28;19999;-36
2021/01/07 09:55:56;;;;;;;;;;;;;;;;;;5075219;28;19962;-39
2021/01/07 09:58:22;;;;;;;;;;;;;;;;;;5075141;28;19908;-37
2021/01/07 10:00:48;;;;;;;;;;;;;;;;;;5075188;28;19909;-38
2021/01/07 10:03:14;;;;;;;;;;;;;;;;;;5074937;28;19924;-42
2021/01/07 10:05:40;;;;;;;;;;;;;;;;;;5074966;28;19915;-39
2021/01/07 10:08:07;;;;;;;;;;;;;;;;;;5074802;28;19946;-39
2021/01/07 10:10:32;;;;;;;;;;;;;;;;;;5074787;28;19908;-38
2021/01/07 10:12:58;;;;;;;;;;;;;;;;;;5074720;28;19909;-39
2021/01/07 10:15:24;;;;;;;;;;;;;;;;;;5074769;28;19916;-37
2021/01/07 10:17:50;;;;;;;;;;;;;;;;;;5074934;28;19909;-38
2021/01/07 10:20:16;;;;;;;;;;;;;;;;;;5075029;28;19915;-38
2021/01/07 10:22:42;;;;;;;;;;;;;;;;;;5074612;28;19921;-38
2021/01/07 10:25:08;;;;;;;;;;;;;;;;;;5074800;28;19919;-42
2021/01/07 10:27:34;;;;;;;;;;;;;;;;;;5074658;28;19916;-38
2021/01/07 10:30:00;;;;;;;;;;;;;;;;;;5074726;28;20302;-38
2021/01/07 10:32:26;;;;;;;;;;;;;;;;;;5074516;28;19908;-38
2021/01/07 10:34:52;;;;;;;;;;;;;;;;;;5074317;28;19909;-38
2021/01/07 10:37:18;;;;;;;;;;;;;;;;;;5074626;28;19999;-39
2021/01/07 10:39:44;;;;;;;;;;;;;;;;;;5074548;28;19908;-38
2021/01/07 10:42:10;;;;;;;;;;;;;;;;;;5074052;28;19970;-38
2021/01/07 10:44:36;;;;;;;;;;;;;;;;;;5074171;28;19909;-39
2021/01/07 10:47:02;;;;;;;;;;;;;;;;;;5074215;28;19962;-39
2021/01/07 10:49:28;;;;;;;;;;;;;;;;;;5074152;28;19908;-39
2021/01/07 10:51:55;;;;;;;;;;;;;;;;;;5074016;28;19909;-39
2021/01/07 10:54:21;;;;;;;;;;;;;;;;;;5074450;28;19909;-40
2021/01/07 10:56:46;;;;;;;;;;;;;;;;;;5073079;28;19931;-39
2021/01/07 10:59:12;;;;;;;;;;;;;;;;;;5074021;28;19942;-38
2021/01/07 11:01:38;;;;;;;;;;;;;;;;;;5073873;28;20003;-43
2021/01/07 11:04:06;;;;;;;;;;;;;;;;;;5073824;28;19917;-42
2021/01/07 11:06:32;;;;;;;;;;;;;;;;;;5073678;28;19999;-39
2021/01/07 11:08:58;;;;;;;;;;;;;;;;;;5073794;28;20376;-40
2021/01/07 11:11:24;;;;;;;;;;;;;;;;;;5073968;28;19909;-39
2021/01/07 11:13:50;;;;;;;;;;;;;;;;;;5073724;28;19999;-38
2021/01/07 11:16:17;;;;;;;;;;;;;;;;;;5073696;28;19913;-39
2021/01/07 11:18:43;;;;;;;;;;;;;;;;;;5073790;28;19931;-38
2021/01/07 11:21:09;;;;;;;;;;;;;;;;;;5073751;28;19999;-39
2021/01/07 11:23:35;;;;;;;;;;;;;;;;;;5073601;28;20036;-40
2021/01/07 11:26:02;;;;;;;;;;;;;;;;;;5073478;28;20385;-38
2021/01/07 11:28:28;;;;;;;;;;;;;;;;;;5073472;28;19988;-39
2021/01/07 11:30:54;;;;;;;;;;;;;;;;;;5073526;28;20017;-38
2021/01/07 11:33:20;;;;;;;;;;;;;;;;;;5073714;28;19978;-38
2021/01/07 11:35:46;;;;;;;;;;;;;;;;;;5073137;28;20370;-39
2021/01/07 11:38:12;;;;;;;;;;;;;;;;;;5073471;28;19909;-39
2021/01/07 11:40:38;;;;;;;;;;;;;;;;;;5073460;28;19908;-39
2021/01/07 11:43:04;;;;;;;;;;;;;;;;;;5073157;28;19923;-39
2021/01/07 11:45:30;;;;;;;;;;;;;;;;;;5073035;28;19915;-38
2021/01/07 11:47:55;;;;;;;;;;;;;;;;;;5072996;28;19909;-37
2021/01/07 11:50:21;;;;;;;;;;;;;;;;;;5073326;28;19914;-38
2021/01/07 11:52:47;;;;;;;;;;;;;;;;;;5072972;28;19908;-38
2021/01/07 11:55:13;;;;;;;;;;;;;;;;;;5073077;28;19908;-39
2021/01/07 11:57:39;;;;;;;;;;;;;;;;;;5072969;28;19959;-37
2021/01/07 12:00:07;;;;;;;;;;;;;;;;;;5072830;28;19909;-38
2021/01/07 12:02:32;;;;;;;;;;;;;;;;;;5072829;28;20297;-37
2021/01/07 12:04:58;;;;;;;;;;;;;;;;;;5072998;28;19908;-39
2021/01/07 12:07:24;;;;;;;;;;;;;;;;;;5072543;28;19920;-38
2021/01/07 12:09:50;;;;;;;;;;;;;;;;;;5072608;28;19915;-38
2021/01/07 12:12:16;;;;;;;;;;;;;;;;;;5072731;28;19912;-41
2021/01/07 12:14:42;;;;;;;;;;;;;;;;;;5072814;28;19951;-37
2021/01/07 12:17:08;;;;;;;;;;;;;;;;;;5072501;28;20270;-37
2021/01/07 12:19:34;;;;;;;;;;;;;;;;;;5072443;28;19962;-38
2021/01/07 12:22:00;;;;;;;;;;;;;;;;;;5072540;28;19947;-40
2021/01/07 12:24:26;;;;;;;;;;;;;;;;;;5072571;28;20408;-37
2021/01/07 12:26:52;;;;;;;;;;;;;;;;;;5072496;28;20415;-39
2021/01/07 12:29:18;;;;;;;;;;;;;;;;;;5072173;28;20388;-40
2021/01/07 12:31:44;;;;;;;;;;;;;;;;;;5072250;28;20425;-39
2021/01/07 12:34:10;;;;;;;;;;;;;;;;;;5072262;28;20408;-38
2021/01/07 12:36:36;;;;;;;;;;;;;;;;;;5072180;28;20387;-39
2021/01/07 12:39:02;;;;;;;;;;;;;;;;;;5072156;28;20364;-39
2021/01/07 12:41:27;;;;;;;;;;;;;;;;;;5072340;28;19978;-38
2021/01/07 12:43:53;;;;;;;;;;;;;;;;;;5072086;28;20359;-38
2021/01/07 12:46:19;;;;;;;;;;;;;;;;;;5072154;28;19909;-37
2021/01/07 12:48:45;;;;;;;;;;;;;;;;;;5072190;28;20784;-38
2021/01/07 12:51:11;;;;;;;;;;;;;;;;;;5072020;28;20206;-40
2021/01/07 12:53:37;;;;;;;;;;;;;;;;;;5072064;28;19916;-38
2021/01/07 12:56:03;;;;;;;;;;;;;;;;;;5071996;28;19915;-38
2021/01/07 12:58:29;;;;;;;;;;;;;;;;;;5071832;28;19962;-39
2021/01/07 13:00:56;;;;;;;;;;;;;;;;;;5072079;28;19913;-38
2021/01/07 13:03:22;;;;;;;;;;;;;;;;;;5071736;28;20016;-39
2021/01/07 13:05:48;;;;;;;;;;;;;;;;;;5071918;28;19951;-39
2021/01/07 13:08:14;;;;;;;;;;;;;;;;;;5071716;28;19920;-39
2021/01/07 13:10:40;;;;;;;;;;;;;;;;;;5071868;28;19909;-38
2021/01/07 13:13:06;;;;;;;;;;;;;;;;;;5071630;28;19916;-41
2021/01/07 13:15:32;;;;;;;;;;;;;;;;;;5071762;28;19912;-38
2021/01/07 13:17:58;;;;;;;;;;;;;;;;;;5071963;28;19909;-38
2021/01/07 13:20:24;;;;;;;;;;;;;;;;;;5074497;28;19947;-37
2021/01/07 13:22:50;;;;;;;;;;;;;;;;;;5075783;28;19928;-37
2021/01/07 13:25:16;;;;;;;;;;;;;;;;;;5076018;28;19916;-39
2021/01/07 13:27:42;;;;;;;;;;;;;;;;;;5075672;28;20347;-37
2021/01/07 13:30:08;;;;;;;;;;;;;;;;;;5075760;28;19916;-40
2021/01/07 13:32:34;;;;;;;;;;;;;;;;;;5075585;28;20425;-40
2021/01/07 13:35:02;;;;;;;;;;;;;;;;;;5075639;28;20359;-40
2021/01/07 13:37:28;;;;;;;;;;;;;;;;;;5075628;28;19912;-45
2021/01/07 13:39:54;;;;;;;;;;;;;;;;;;5075492;28;19909;-37
2021/01/07 13:42:20;;;;;;;;;;;;;;;;;;5075327;28;19912;-37
2021/01/07 13:44:46;;;;;;;;;;;;;;;;;;5075225;28;19915;-39
2021/01/07 13:47:12;;;;;;;;;;;;;;;;;;5075315;28;19909;-37
2021/01/07 13:49:38;;;;;;;;;;;;;;;;;;5075177;28;19962;-38
2021/01/07 13:52:04;;;;;;;;;;;;;;;;;;5075216;28;19909;-37
2021/01/07 13:54:30;;;;;;;;;;;;;;;;;;5075461;28;20240;-36
2021/01/07 13:56:56;;;;;;;;;;;;;;;;;;5075287;28;19930;-37
2021/01/07 13:59:22;;;;;;;;;;;;;;;;;;5075155;28;19913;-37
2021/01/07 14:01:48;;;;;;;;;;;;;;;;;;5075023;28;19908;-37
2021/01/07 14:04:14;;;;;;;;;;;;;;;;;;5075046;28;19924;-37
2021/01/07 14:06:40;;;;;;;;;;;;;;;;;;5074753;28;20471;-38
2021/01/07 14:09:06;;;;;;;;;;;;;;;;;;5074922;28;20356;-38
2021/01/07 14:11:32;;;;;;;;;;;;;;;;;;5074836;28;20359;-36
2021/01/07 14:13:58;;;;;;;;;;;;;;;;;;5074820;28;20348;-36
2021/01/07 14:16:24;;;;;;;;;;;;;;;;;;5074771;28;20015;-38
2021/01/07 14:18:49;;;;;;;;;;;;;;;;;;5074784;28;20478;-37
2021/01/07 14:21:16;;;;;;;;;;;;;;;;;;5074799;28;19908;-37
2021/01/07 14:23:41;;;;;;;;;;;;;;;;;;5074698;28;20054;-39
2021/01/07 14:26:07;;;;;;;;;;;;;;;;;;5074646;28;20468;-38
2021/01/07 14:28:33;;;;;;;;;;;;;;;;;;5074777;28;20324;-39
2021/01/07 14:30:59;;;;;;;;;;;;;;;;;;5073217;28;19909;-39
2021/01/07 14:33:28;;;;;;;;;;;;;;;;;;5074494;28;19944;-38
2021/01/07 14:35:54;;;;;;;;;;;;;;;;;;5074620;28;19908;-39
2021/01/07 14:38:20;;;;;;;;;;;;;;;;;;5074444;28;20272;-38
2021/01/07 14:40:46;;;;;;;;;;;;;;;;;;5074367;28;20318;-38
2021/01/07 14:43:12;;;;;;;;;;;;;;;;;;5074271;28;20326;-39
2021/01/07 14:45:38;;;;;;;;;;;;;;;;;;5074119;28;20407;-36
2021/01/07 14:48:04;;;;;;;;;;;;;;;;;;5074157;28;20356;-37
2021/01/07 14:50:30;;;;;;;;;;;;;;;;;;5074516;28;19916;-36
2021/01/07 14:52:56;;;;;;;;;;;;;;;;;;5074146;28;20366;-38
2021/01/07 14:55:22;;;;;;;;;;;;;;;;;;5074084;28;19916;-38
2021/01/07 14:57:47;;;;;;;;;;;;;;;;;;5074026;28;19928;-37
2021/01/07 15:00:13;;;;;;;;;;;;;;;;;;5073874;28;20084;-36
2021/01/07 15:02:39;;;;;;;;;;;;;;;;;;5073919;28;19924;-37
2021/01/07 15:05:05;;;;;;;;;;;;;;;;;;5073919;28;20139;-37
2021/01/07 15:07:31;;;;;;;;;;;;;;;;;;5073852;28;19926;-36
2021/01/07 15:09:57;;;;;;;;;;;;;;;;;;5073874;28;19915;-37
2021/01/07 15:12:23;;;;;;;;;;;;;;;;;;5073854;28;19948;-37
2021/01/07 15:14:49;;;;;;;;;;;;;;;;;;5073624;28;19909;-40
2021/01/07 15:17:15;;;;;;;;;;;;;;;;;;5073643;28;19908;-39
2021/01/07 15:19:41;;;;;;;;;;;;;;;;;;5073608;28;19915;-37
2021/01/07 15:22:07;;;;;;;;;;;;;;;;;;5073483;28;19909;-38
2021/01/07 15:24:33;;;;;;;;;;;;;;;;;;5073692;28;19908;-38
2021/01/07 15:26:59;;;;;;;;;;;;;;;;;;5073634;28;19963;-37
2021/01/07 15:29:25;;;;;;;;;;;;;;;;;;5073243;28;19963;-36
2021/01/07 15:31:51;;;;;;;;;;;;;;;;;;5073378;28;20401;-38
2021/01/07 15:34:17;;;;;;;;;;;;;;;;;;5073259;28;19908;-38
2021/01/07 15:36:42;;;;;;;;;;;;;;;;;;5073553;28;19916;-40
2021/01/07 15:39:08;;;;;;;;;;;;;;;;;;5073196;28;20116;-37
2021/01/07 15:41:34;;;;;;;;;;;;;;;;;;5073476;28;19912;-36
2021/01/07 15:44:00;;;;;;;;;;;;;;;;;;5072954;28;19945;-37
2021/01/07 15:46:26;;;;;;;;;;;;;;;;;;5072757;28;20013;-36
2021/01/07 15:48:52;;;;;;;;;;;;;;;;;;5073043;28;19944;-41
2021/01/07 15:51:20;;;;;;;;;;;;;;;;;;5072945;28;19913;-37
2021/01/07 15:53:46;;;;;;;;;;;;;;;;;;5073142;28;20271;-43
2021/01/07 15:56:12;;;;;;;;;;;;;;;;;;5073085;28;19908;-36
2021/01/07 15:58:38;;;;;;;;;;;;;;;;;;5073030;28;20003;-39
2021/01/07 16:01:04;;;;;;;;;;;;;;;;;;5072664;28;19955;-36
2021/01/07 16:03:30;;;;;;;;;;;;;;;;;;5072591;28;19916;-37
2021/01/07 16:05:56;;;;;;;;;;;;;;;;;;5072971;28;19913;-38
2021/01/07 16:08:22;;;;;;;;;;;;;;;;;;5072409;28;19920;-38
2021/01/07 16:10:48;;;;;;;;;;;;;;;;;;5072514;28;19908;-37
2021/01/07 16:13:14;;;;;;;;;;;;;;;;;;5072480;28;19908;-38
2021/01/07 16:15:40;;;;;;;;;;;;;;;;;;5072573;28;19999;-36
2021/01/07 16:18:06;;;;;;;;;;;;;;;;;;5072596;28;19909;-37
2021/01/07 16:20:33;;;;;;;;;;;;;;;;;;5072615;28;19916;-36
2021/01/07 16:22:59;;;;;;;;;;;;;;;;;;5072529;28;19916;-39
2021/01/07 16:25:25;;;;;;;;;;;;;;;;;;5072419;28;20317;-38
2021/01/07 16:27:51;;;;;;;;;;;;;;;;;;5072356;28;20313;-38
2021/01/07 16:30:17;;;;;;;;;;;;;;;;;;5072052;28;20271;-39
2021/01/07 16:32:43;;;;;;;;;;;;;;;;;;5072300;28;20279;-39
2021/01/07 16:35:09;;;;;;;;;;;;;;;;;;5072250;28;20411;-38
2021/01/07 16:37:35;;;;;;;;;;;;;;;;;;5072963;28;21237;-37
2021/01/07 16:40:01;;;;;;;;;;;;;;;;;;5072401;28;20421;-38